sensor_id;sensor_type;location;lat;lon;timestamp;P1;durP1;ratioP1;P2;durP2;ratioP2
41689;SDS011;27372;42.658;23.256;2023-12-29T03:51:39;28.83;;;15.30;;
41689;SDS011;27372;42.658;23.256;2023-12-29T03:54:04;25.77;;;13.75;;
41689;SDS011;27372;42.658;23.256;2023-12-29T03:56:29;27.52;;;13.57;;
41689;SDS011;27372;42.658;23.256;2023-12-29T03:58:55;35.40;;;15.80;;
41689;SDS011;27372;42.658;23.256;2023-12-29T04:01:20;34.00;;;17.05;;
41689;SDS011;27372;42.658;23.256;2023-12-29T04:03:46;31.02;;;14.68;;
41689;SDS011;27372;42.658;23.256;2023-12-29T04:06:11;28.35;;;15.18;;
41689;SDS011;27372;42.658;23.256;2023-12-29T04:08:37;27.42;;;15.02;;
41689;SDS011;27372;42.658;23.256;2023-12-29T04:11:03;24.10;;;12.15;;
41689;SDS011;27372;42.658;23.256;2023-12-29T04:13:29;24.67;;;11.02;;
41689;SDS011;27372;42.658;23.256;2023-12-29T04:15:55;22.15;;;11.70;;
41689;SDS011;27372;42.658;23.256;2023-12-29T04:18:22;25.45;;;12.20;;
41689;SDS011;27372;42.658;23.256;2023-12-29T04:20:48;27.55;;;14.73;;
41689;SDS011;27372;42.658;23.256;2023-12-29T04:23:14;25.33;;;13.70;;
41689;SDS011;27372;42.658;23.256;2023-12-29T04:25:39;25.63;;;13.23;;
41689;SDS011;27372;42.658;23.256;2023-12-29T04:28:05;27.13;;;13.30;;
41689;SDS011;27372;42.658;23.256;2023-12-29T04:30:32;20.48;;;10.70;;
41689;SDS011;27372;42.658;23.256;2023-12-29T04:32:58;18.45;;;10.60;;
41689;SDS011;27372;42.658;23.256;2023-12-29T04:35:23;23.98;;;11.43;;
41689;SDS011;27372;42.658;23.256;2023-12-29T04:37:48;25.17;;;11.43;;
41689;SDS011;27372;42.658;23.256;2023-12-29T04:40:14;15.60;;;8.10;;
41689;SDS011;27372;42.658;23.256;2023-12-29T04:42:40;25.67;;;13.95;;
41689;SDS011;27372;42.658;23.256;2023-12-29T04:45:05;29.20;;;11.05;;
41689;SDS011;27372;42.658;23.256;2023-12-29T04:47:32;26.48;;;11.95;;
41689;SDS011;27372;42.658;23.256;2023-12-29T04:49:57;25.85;;;13.38;;
41689;SDS011;27372;42.658;23.256;2023-12-29T04:52:23;31.98;;;14.82;;
41689;SDS011;27372;42.658;23.256;2023-12-29T04:54:48;28.48;;;13.68;;
41689;SDS011;27372;42.658;23.256;2023-12-29T04:57:14;25.08;;;13.77;;
41689;SDS011;27372;42.658;23.256;2023-12-29T04:59:39;22.95;;;12.38;;
41689;SDS011;27372;42.658;23.256;2023-12-29T05:02:05;36.40;;;19.25;;
41689;SDS011;27372;42.658;23.256;2023-12-29T05:04:30;31.10;;;16.00;;
41689;SDS011;27372;42.658;23.256;2023-12-29T05:06:56;29.33;;;14.57;;
41689;SDS011;27372;42.658;23.256;2023-12-29T05:09:22;25.58;;;13.88;;
41689;SDS011;27372;42.658;23.256;2023-12-29T05:11:47;21.88;;;12.70;;
41689;SDS011;27372;42.658;23.256;2023-12-29T05:14:13;20.38;;;11.05;;
41689;SDS011;27372;42.658;23.256;2023-12-29T05:16:38;75.75;;;32.65;;
41689;SDS011;27372;42.658;23.256;2023-12-29T05:19:03;95.60;;;38.65;;
41689;SDS011;27372;42.658;23.256;2023-12-29T05:21:29;51.80;;;25.55;;
41689;SDS011;27372;42.658;23.256;2023-12-29T05:23:55;49.88;;;24.38;;
41689;SDS011;27372;42.658;23.256;2023-12-29T05:26:21;52.25;;;24.38;;
41689;SDS011;27372;42.658;23.256;2023-12-29T05:28:46;52.15;;;23.30;;
41689;SDS011;27372;42.658;23.256;2023-12-29T05:31:12;42.45;;;19.63;;
41689;SDS011;27372;42.658;23.256;2023-12-29T05:33:37;42.67;;;19.33;;
41689;SDS011;27372;42.658;23.256;2023-12-29T05:36:06;43.05;;;20.02;;
41689;SDS011;27372;42.658;23.256;2023-12-29T05:38:33;46.28;;;22.10;;
41689;SDS011;27372;42.658;23.256;2023-12-29T05:40:59;50.10;;;23.17;;
41689;SDS011;27372;42.658;23.256;2023-12-29T05:43:27;37.75;;;18.95;;
41689;SDS011;27372;42.658;23.256;2023-12-29T05:45:53;35.47;;;18.60;;
41689;SDS011;27372;42.658;23.256;2023-12-29T05:48:19;42.58;;;19.00;;
41689;SDS011;27372;42.658;23.256;2023-12-29T05:50:45;46.85;;;21.90;;
41689;SDS011;27372;42.658;23.256;2023-12-29T05:53:11;37.80;;;18.02;;
41689;SDS011;27372;42.658;23.256;2023-12-29T05:55:36;39.15;;;18.17;;
41689;SDS011;27372;42.658;23.256;2023-12-29T05:58:02;56.28;;;26.23;;
41689;SDS011;27372;42.658;23.256;2023-12-29T06:00:27;52.28;;;24.83;;
41689;SDS011;27372;42.658;23.256;2023-12-29T06:02:53;45.40;;;20.05;;
41689;SDS011;27372;42.658;23.256;2023-12-29T06:05:18;41.78;;;20.95;;
41689;SDS011;27372;42.658;23.256;2023-12-29T06:07:45;45.42;;;20.65;;
41689;SDS011;27372;42.658;23.256;2023-12-29T06:10:11;41.33;;;20.73;;
41689;SDS011;27372;42.658;23.256;2023-12-29T06:12:36;36.47;;;18.73;;
41689;SDS011;27372;42.658;23.256;2023-12-29T06:15:02;40.55;;;19.52;;
41689;SDS011;27372;42.658;23.256;2023-12-29T06:17:28;29.05;;;15.35;;
41689;SDS011;27372;42.658;23.256;2023-12-29T06:19:55;25.08;;;12.98;;
41689;SDS011;27372;42.658;23.256;2023-12-29T06:22:20;24.83;;;13.23;;
41689;SDS011;27372;42.658;23.256;2023-12-29T06:24:46;29.20;;;16.08;;
41689;SDS011;27372;42.658;23.256;2023-12-29T06:27:11;32.20;;;18.05;;
41689;SDS011;27372;42.658;23.256;2023-12-29T06:29:37;47.20;;;23.40;;
41689;SDS011;27372;42.658;23.256;2023-12-29T06:32:03;48.95;;;23.73;;
41689;SDS011;27372;42.658;23.256;2023-12-29T06:34:29;46.65;;;24.95;;
41689;SDS011;27372;42.658;23.256;2023-12-29T06:36:55;41.40;;;23.02;;
41689;SDS011;27372;42.658;23.256;2023-12-29T06:39:20;50.70;;;25.23;;
41689;SDS011;27372;42.658;23.256;2023-12-29T06:41:45;44.67;;;24.00;;
41689;SDS011;27372;42.658;23.256;2023-12-29T06:44:11;45.95;;;24.13;;
41689;SDS011;27372;42.658;23.256;2023-12-29T06:46:37;42.58;;;22.42;;
41689;SDS011;27372;42.658;23.256;2023-12-29T06:49:03;40.38;;;21.58;;
41689;SDS011;27372;42.658;23.256;2023-12-29T06:51:29;42.72;;;22.33;;
41689;SDS011;27372;42.658;23.256;2023-12-29T06:53:56;43.58;;;22.40;;
41689;SDS011;27372;42.658;23.256;2023-12-29T06:56:21;36.22;;;19.90;;
41689;SDS011;27372;42.658;23.256;2023-12-29T06:58:47;32.55;;;18.75;;
41689;SDS011;27372;42.658;23.256;2023-12-29T07:01:13;26.10;;;14.93;;
41689;SDS011;27372;42.658;23.256;2023-12-29T07:03:38;36.13;;;19.60;;
41689;SDS011;27372;42.658;23.256;2023-12-29T07:06:05;36.92;;;20.65;;
41689;SDS011;27372;42.658;23.256;2023-12-29T07:08:31;48.80;;;24.85;;
41689;SDS011;27372;42.658;23.256;2023-12-29T07:10:56;46.63;;;23.27;;
41689;SDS011;27372;42.658;23.256;2023-12-29T07:13:22;36.83;;;20.55;;
41689;SDS011;27372;42.658;23.256;2023-12-29T07:15:47;46.80;;;22.73;;
41689;SDS011;27372;42.658;23.256;2023-12-29T07:18:13;48.58;;;26.23;;
41689;SDS011;27372;42.658;23.256;2023-12-29T07:20:39;50.28;;;26.60;;
41689;SDS011;27372;42.658;23.256;2023-12-29T07:23:05;55.65;;;27.95;;
41689;SDS011;27372;42.658;23.256;2023-12-29T07:25:30;51.35;;;28.08;;
41689;SDS011;27372;42.658;23.256;2023-12-29T07:27:56;53.47;;;27.65;;
41689;SDS011;27372;42.658;23.256;2023-12-29T07:30:21;54.95;;;29.42;;
41689;SDS011;27372;42.658;23.256;2023-12-29T07:32:47;48.35;;;27.92;;
41689;SDS011;27372;42.658;23.256;2023-12-29T07:35:12;52.42;;;29.02;;
41689;SDS011;27372;42.658;23.256;2023-12-29T07:37:41;55.67;;;29.13;;
41689;SDS011;27372;42.658;23.256;2023-12-29T07:40:07;54.75;;;29.60;;
41689;SDS011;27372;42.658;23.256;2023-12-29T07:42:35;58.10;;;28.38;;
41689;SDS011;27372;42.658;23.256;2023-12-29T07:45:00;48.47;;;25.48;;
41689;SDS011;27372;42.658;23.256;2023-12-29T07:47:26;54.88;;;27.77;;
41689;SDS011;27372;42.658;23.256;2023-12-29T07:49:52;49.67;;;27.33;;
41689;SDS011;27372;42.658;23.256;2023-12-29T07:52:18;52.97;;;28.42;;
41689;SDS011;27372;42.658;23.256;2023-12-29T07:54:43;55.83;;;32.15;;
41689;SDS011;27372;42.658;23.256;2023-12-29T07:57:09;54.35;;;28.60;;
41689;SDS011;27372;42.658;23.256;2023-12-29T07:59:34;59.35;;;31.95;;
41689;SDS011;27372;42.658;23.256;2023-12-29T08:02:00;62.08;;;32.45;;
41689;SDS011;27372;42.658;23.256;2023-12-29T08:04:25;57.67;;;32.35;;
41689;SDS011;27372;42.658;23.256;2023-12-29T08:06:51;53.13;;;28.63;;
41689;SDS011;27372;42.658;23.256;2023-12-29T08:09:16;31.10;;;17.15;;
41689;SDS011;27372;42.658;23.256;2023-12-29T08:11:42;46.05;;;24.40;;
41689;SDS011;27372;42.658;23.256;2023-12-29T08:14:08;49.45;;;28.25;;
41689;SDS011;27372;42.658;23.256;2023-12-29T08:16:39;53.57;;;29.53;;
41689;SDS011;27372;42.658;23.256;2023-12-29T08:19:07;57.97;;;31.75;;
41689;SDS011;27372;42.658;23.256;2023-12-29T08:21:33;53.22;;;28.63;;
41689;SDS011;27372;42.658;23.256;2023-12-29T08:23:58;51.38;;;30.42;;
41689;SDS011;27372;42.658;23.256;2023-12-29T08:26:24;53.22;;;32.35;;
41689;SDS011;27372;42.658;23.256;2023-12-29T08:28:50;57.83;;;32.63;;
41689;SDS011;27372;42.658;23.256;2023-12-29T08:31:15;51.67;;;31.50;;
41689;SDS011;27372;42.658;23.256;2023-12-29T08:33:41;59.80;;;35.00;;
41689;SDS011;27372;42.658;23.256;2023-12-29T08:36:07;56.22;;;33.10;;
41689;SDS011;27372;42.658;23.256;2023-12-29T08:38:32;53.40;;;30.60;;
41689;SDS011;27372;42.658;23.256;2023-12-29T08:40:58;60.92;;;35.72;;
41689;SDS011;27372;42.658;23.256;2023-12-29T08:43:24;65.18;;;37.20;;
41689;SDS011;27372;42.658;23.256;2023-12-29T08:45:50;70.05;;;38.90;;
41689;SDS011;27372;42.658;23.256;2023-12-29T08:48:16;61.53;;;37.53;;
41689;SDS011;27372;42.658;23.256;2023-12-29T08:50:41;69.63;;;38.90;;
41689;SDS011;27372;42.658;23.256;2023-12-29T08:53:08;67.85;;;40.55;;
41689;SDS011;27372;42.658;23.256;2023-12-29T08:55:34;66.35;;;39.15;;
41689;SDS011;27372;42.658;23.256;2023-12-29T08:58:00;70.28;;;39.10;;
41689;SDS011;27372;42.658;23.256;2023-12-29T09:00:26;67.75;;;40.95;;
41689;SDS011;27372;42.658;23.256;2023-12-29T09:02:52;82.28;;;47.15;;
41689;SDS011;27372;42.658;23.256;2023-12-29T09:05:17;76.25;;;43.75;;
41689;SDS011;27372;42.658;23.256;2023-12-29T09:07:42;74.95;;;43.45;;
41689;SDS011;27372;42.658;23.256;2023-12-29T09:10:08;80.53;;;45.38;;
41689;SDS011;27372;42.658;23.256;2023-12-29T09:12:35;81.13;;;46.20;;
41689;SDS011;27372;42.658;23.256;2023-12-29T09:15:01;83.22;;;48.20;;
41689;SDS011;27372;42.658;23.256;2023-12-29T09:17:27;86.63;;;48.63;;
41689;SDS011;27372;42.658;23.256;2023-12-29T09:19:53;93.18;;;51.35;;
41689;SDS011;27372;42.658;23.256;2023-12-29T09:22:19;90.68;;;49.92;;
41689;SDS011;27372;42.658;23.256;2023-12-29T09:24:45;85.55;;;50.25;;
41689;SDS011;27372;42.658;23.256;2023-12-29T09:27:10;87.50;;;52.35;;
41689;SDS011;27372;42.658;23.256;2023-12-29T09:29:36;89.15;;;51.80;;
41689;SDS011;27372;42.658;23.256;2023-12-29T09:32:01;87.47;;;52.08;;
41689;SDS011;27372;42.658;23.256;2023-12-29T09:34:27;96.03;;;54.45;;
41689;SDS011;27372;42.658;23.256;2023-12-29T09:36:52;87.90;;;53.58;;
41689;SDS011;27372;42.658;23.256;2023-12-29T09:39:18;92.07;;;53.70;;
41689;SDS011;27372;42.658;23.256;2023-12-29T09:41:45;90.85;;;51.10;;
41689;SDS011;27372;42.658;23.256;2023-12-29T09:44:13;91.40;;;52.43;;
41689;SDS011;27372;42.658;23.256;2023-12-29T09:46:39;87.03;;;51.00;;
41689;SDS011;27372;42.658;23.256;2023-12-29T09:49:06;86.70;;;48.90;;
41689;SDS011;27372;42.658;23.256;2023-12-29T09:51:33;79.15;;;46.80;;
41689;SDS011;27372;42.658;23.256;2023-12-29T09:54:01;79.03;;;46.45;;
41689;SDS011;27372;42.658;23.256;2023-12-29T09:56:27;71.32;;;42.50;;
41689;SDS011;27372;42.658;23.256;2023-12-29T09:58:53;58.58;;;33.80;;
41689;SDS011;27372;42.658;23.256;2023-12-29T10:01:20;52.50;;;32.05;;
41689;SDS011;27372;42.658;23.256;2023-12-29T10:03:49;52.53;;;31.17;;
41689;SDS011;27372;42.658;23.256;2023-12-29T10:06:16;56.60;;;33.25;;
41689;SDS011;27372;42.658;23.256;2023-12-29T10:08:46;43.75;;;27.48;;
41689;SDS011;27372;42.658;23.256;2023-12-29T10:11:15;45.63;;;27.97;;
41689;SDS011;27372;42.658;23.256;2023-12-29T10:13:43;49.65;;;28.40;;
41689;SDS011;27372;42.658;23.256;2023-12-29T10:16:26;42.72;;;27.05;;
41689;SDS011;27372;42.658;23.256;2023-12-29T10:21:25;48.08;;;28.73;;
41689;SDS011;27372;42.658;23.256;2023-12-29T10:23:56;45.72;;;28.50;;
41689;SDS011;27372;42.658;23.256;2023-12-29T10:26:28;44.97;;;28.17;;
41689;SDS011;27372;42.658;23.256;2023-12-29T10:28:53;38.78;;;26.27;;
41689;SDS011;27372;42.658;23.256;2023-12-29T10:31:23;42.63;;;26.20;;
41689;SDS011;27372;42.658;23.256;2023-12-29T10:36:16;39.28;;;27.30;;
41689;SDS011;27372;42.658;23.256;2023-12-29T10:38:42;45.15;;;26.70;;
41689;SDS011;27372;42.658;23.256;2023-12-29T10:43:40;44.00;;;26.63;;
41689;SDS011;27372;42.658;23.256;2023-12-29T10:46:07;43.42;;;27.10;;
41689;SDS011;27372;42.658;23.256;2023-12-29T10:48:34;45.15;;;27.83;;
41689;SDS011;27372;42.658;23.256;2023-12-29T10:50:59;41.53;;;27.08;;
41689;SDS011;27372;42.658;23.256;2023-12-29T10:53:28;39.47;;;25.77;;
41689;SDS011;27372;42.658;23.256;2023-12-29T10:55:55;39.60;;;25.98;;
41689;SDS011;27372;42.658;23.256;2023-12-29T10:58:21;43.97;;;26.55;;
41689;SDS011;27372;42.658;23.256;2023-12-29T11:00:46;44.20;;;26.27;;
41689;SDS011;27372;42.658;23.256;2023-12-29T11:03:15;47.00;;;26.77;;
41689;SDS011;27372;42.658;23.256;2023-12-29T11:05:41;40.58;;;26.30;;
41689;SDS011;27372;42.658;23.256;2023-12-29T11:08:16;39.25;;;25.83;;
41689;SDS011;27372;42.658;23.256;2023-12-29T11:10:43;45.70;;;28.17;;
41689;SDS011;27372;42.658;23.256;2023-12-29T11:13:12;50.25;;;27.27;;
41689;SDS011;27372;42.658;23.256;2023-12-29T11:15:42;42.00;;;25.88;;
41689;SDS011;27372;42.658;23.256;2023-12-29T11:18:12;41.40;;;26.73;;
41689;SDS011;27372;42.658;23.256;2023-12-29T11:20:39;48.63;;;27.48;;
41689;SDS011;27372;42.658;23.256;2023-12-29T11:23:09;44.47;;;26.77;;
41689;SDS011;27372;42.658;23.256;2023-12-29T11:25:38;46.80;;;27.80;;
41689;SDS011;27372;42.658;23.256;2023-12-29T11:28:04;45.55;;;28.15;;
41689;SDS011;27372;42.658;23.256;2023-12-29T11:30:33;43.63;;;28.80;;
41689;SDS011;27372;42.658;23.256;2023-12-29T11:33:18;47.50;;;28.40;;
41689;SDS011;27372;42.658;23.256;2023-12-29T11:35:56;44.90;;;28.15;;
41689;SDS011;27372;42.658;23.256;2023-12-29T11:41:25;48.47;;;26.88;;
41689;SDS011;27372;42.658;23.256;2023-12-29T11:44:11;44.90;;;26.52;;
41689;SDS011;27372;42.658;23.256;2023-12-29T11:46:40;38.83;;;26.08;;
41689;SDS011;27372;42.658;23.256;2023-12-29T11:49:08;43.85;;;27.73;;
41689;SDS011;27372;42.658;23.256;2023-12-29T11:51:41;45.85;;;29.88;;
41689;SDS011;27372;42.658;23.256;2023-12-29T11:54:10;46.80;;;30.75;;
41689;SDS011;27372;42.658;23.256;2023-12-29T11:56:49;53.40;;;31.20;;
41689;SDS011;27372;42.658;23.256;2023-12-29T11:59:21;53.47;;;28.33;;
41689;SDS011;27372;42.658;23.256;2023-12-29T12:01:55;40.97;;;26.95;;
41689;SDS011;27372;42.658;23.256;2023-12-29T12:04:35;46.15;;;28.23;;
41689;SDS011;27372;42.658;23.256;2023-12-29T12:07:08;51.88;;;30.33;;
41689;SDS011;27372;42.658;23.256;2023-12-29T12:09:38;46.38;;;32.17;;
41689;SDS011;27372;42.658;23.256;2023-12-29T12:12:04;49.10;;;32.15;;
41689;SDS011;27372;42.658;23.256;2023-12-29T12:17:34;38.50;;;26.75;;
41689;SDS011;27372;42.658;23.256;2023-12-29T12:20:00;38.67;;;25.27;;
41689;SDS011;27372;42.658;23.256;2023-12-29T12:22:30;41.97;;;26.35;;
41689;SDS011;27372;42.658;23.256;2023-12-29T12:24:59;37.97;;;24.58;;
41689;SDS011;27372;42.658;23.256;2023-12-29T12:27:28;32.90;;;17.92;;
41689;SDS011;27372;42.658;23.256;2023-12-29T12:29:54;24.40;;;13.50;;
41689;SDS011;27372;42.658;23.256;2023-12-29T12:32:22;20.50;;;11.65;;
41689;SDS011;27372;42.658;23.256;2023-12-29T12:34:48;23.33;;;11.85;;
41689;SDS011;27372;42.658;23.256;2023-12-29T12:37:18;14.10;;;8.32;;
41689;SDS011;27372;42.658;23.256;2023-12-29T12:39:51;17.13;;;9.00;;
41689;SDS011;27372;42.658;23.256;2023-12-29T12:42:17;19.42;;;9.88;;
41689;SDS011;27372;42.658;23.256;2023-12-29T12:44:47;12.52;;;7.68;;
41689;SDS011;27372;42.658;23.256;2023-12-29T12:50:11;15.30;;;8.18;;
41689;SDS011;27372;42.658;23.256;2023-12-29T12:52:37;12.57;;;6.65;;
41689;SDS011;27372;42.658;23.256;2023-12-29T12:55:04;13.70;;;6.00;;
41689;SDS011;27372;42.658;23.256;2023-12-29T12:57:31;11.38;;;5.88;;
41689;SDS011;27372;42.658;23.256;2023-12-29T12:59:58;13.35;;;6.10;;
41689;SDS011;27372;42.658;23.256;2023-12-29T13:02:25;10.85;;;6.63;;
41689;SDS011;27372;42.658;23.256;2023-12-29T13:04:52;17.33;;;6.85;;
41689;SDS011;27372;42.658;23.256;2023-12-29T13:07:18;8.38;;;5.82;;
41689;SDS011;27372;42.658;23.256;2023-12-29T13:09:47;13.23;;;7.00;;
41689;SDS011;27372;42.658;23.256;2023-12-29T13:12:15;12.27;;;7.80;;
41689;SDS011;27372;42.658;23.256;2023-12-29T13:14:41;14.13;;;6.95;;
41689;SDS011;27372;42.658;23.256;2023-12-29T13:17:08;15.48;;;7.45;;
41689;SDS011;27372;42.658;23.256;2023-12-29T13:19:39;17.10;;;7.38;;
41689;SDS011;27372;42.658;23.256;2023-12-29T13:22:06;11.10;;;7.30;;
41689;SDS011;27372;42.658;23.256;2023-12-29T13:24:33;14.52;;;8.13;;
41689;SDS011;27372;42.658;23.256;2023-12-29T13:27:05;13.98;;;7.88;;
41689;SDS011;27372;42.658;23.256;2023-12-29T13:29:31;16.05;;;8.55;;
41689;SDS011;27372;42.658;23.256;2023-12-29T13:37:10;10.77;;;7.32;;
41689;SDS011;27372;42.658;23.256;2023-12-29T13:42:47;12.63;;;7.80;;
41689;SDS011;27372;42.658;23.256;2023-12-29T13:45:15;12.80;;;6.75;;
41689;SDS011;27372;42.658;23.256;2023-12-29T13:47:43;12.68;;;6.95;;
41689;SDS011;27372;42.658;23.256;2023-12-29T13:50:09;14.75;;;7.10;;
41689;SDS011;27372;42.658;23.256;2023-12-29T13:52:38;14.68;;;6.35;;
41689;SDS011;27372;42.658;23.256;2023-12-29T13:55:04;10.02;;;6.32;;
41689;SDS011;27372;42.658;23.256;2023-12-29T13:57:31;13.13;;;6.80;;
41689;SDS011;27372;42.658;23.256;2023-12-29T13:59:57;15.10;;;7.30;;
41689;SDS011;27372;42.658;23.256;2023-12-29T14:02:36;11.93;;;7.25;;
41689;SDS011;27372;42.658;23.256;2023-12-29T14:07:59;11.18;;;7.47;;
41689;SDS011;27372;42.658;23.256;2023-12-29T14:10:33;14.65;;;7.00;;
41689;SDS011;27372;42.658;23.256;2023-12-29T14:15:34;16.05;;;7.32;;
41689;SDS011;27372;42.658;23.256;2023-12-29T14:20:47;14.80;;;7.32;;
41689;SDS011;27372;42.658;23.256;2023-12-29T14:23:13;15.45;;;6.90;;
41689;SDS011;27372;42.658;23.256;2023-12-29T14:25:38;14.95;;;7.80;;
41689;SDS011;27372;42.658;23.256;2023-12-29T14:28:14;15.35;;;7.45;;
41689;SDS011;27372;42.658;23.256;2023-12-29T14:30:43;14.43;;;6.80;;
41689;SDS011;27372;42.658;23.256;2023-12-29T14:33:10;15.63;;;7.63;;
41689;SDS011;27372;42.658;23.256;2023-12-29T14:35:36;13.25;;;7.25;;
41689;SDS011;27372;42.658;23.256;2023-12-29T14:38:01;11.10;;;6.38;;
41689;SDS011;27372;42.658;23.256;2023-12-29T14:40:27;10.25;;;6.40;;
41689;SDS011;27372;42.658;23.256;2023-12-29T14:42:53;11.50;;;6.72;;
41689;SDS011;27372;42.658;23.256;2023-12-29T14:45:19;14.70;;;7.25;;
41689;SDS011;27372;42.658;23.256;2023-12-29T14:47:44;17.95;;;7.38;;
41689;SDS011;27372;42.658;23.256;2023-12-29T14:50:14;12.75;;;7.20;;
41689;SDS011;27372;42.658;23.256;2023-12-29T14:52:40;15.15;;;6.72;;
41689;SDS011;27372;42.658;23.256;2023-12-29T14:55:06;14.43;;;7.00;;
41689;SDS011;27372;42.658;23.256;2023-12-29T14:57:31;14.25;;;6.88;;
41689;SDS011;27372;42.658;23.256;2023-12-29T14:59:57;14.27;;;7.05;;
41689;SDS011;27372;42.658;23.256;2023-12-29T15:02:22;13.75;;;6.88;;
41689;SDS011;27372;42.658;23.256;2023-12-29T15:04:48;16.90;;;6.53;;
41689;SDS011;27372;42.658;23.256;2023-12-29T15:07:14;11.80;;;5.93;;
41689;SDS011;27372;42.658;23.256;2023-12-29T15:09:40;14.15;;;6.65;;
41689;SDS011;27372;42.658;23.256;2023-12-29T15:12:05;13.93;;;6.47;;
41689;SDS011;27372;42.658;23.256;2023-12-29T15:14:31;18.92;;;7.22;;
41689;SDS011;27372;42.658;23.256;2023-12-29T15:16:57;17.08;;;7.50;;
41689;SDS011;27372;42.658;23.256;2023-12-29T15:19:22;17.55;;;6.90;;
41689;SDS011;27372;42.658;23.256;2023-12-29T15:21:47;14.77;;;6.93;;
41689;SDS011;27372;42.658;23.256;2023-12-29T15:24:13;17.15;;;6.72;;
41689;SDS011;27372;42.658;23.256;2023-12-29T15:26:38;13.40;;;7.03;;
41689;SDS011;27372;42.658;23.256;2023-12-29T15:29:04;14.40;;;6.47;;
41689;SDS011;27372;42.658;23.256;2023-12-29T15:31:31;12.85;;;6.22;;
41689;SDS011;27372;42.658;23.256;2023-12-29T15:33:57;14.20;;;6.43;;
41689;SDS011;27372;42.658;23.256;2023-12-29T15:36:22;16.05;;;6.85;;
41689;SDS011;27372;42.658;23.256;2023-12-29T15:38:52;12.80;;;6.57;;
41689;SDS011;27372;42.658;23.256;2023-12-29T15:41:18;18.38;;;6.25;;
41689;SDS011;27372;42.658;23.256;2023-12-29T15:43:43;15.18;;;6.78;;
41689;SDS011;27372;42.658;23.256;2023-12-29T15:46:14;13.68;;;6.75;;
41689;SDS011;27372;42.658;23.256;2023-12-29T15:48:40;17.80;;;6.40;;
41689;SDS011;27372;42.658;23.256;2023-12-29T15:51:06;13.27;;;6.05;;
41689;SDS011;27372;42.658;23.256;2023-12-29T15:53:32;21.73;;;8.38;;
41689;SDS011;27372;42.658;23.256;2023-12-29T15:55:57;18.58;;;7.03;;
41689;SDS011;27372;42.658;23.256;2023-12-29T15:58:24;16.50;;;6.13;;
41689;SDS011;27372;42.658;23.256;2023-12-29T16:00:49;16.55;;;6.78;;
41689;SDS011;27372;42.658;23.256;2023-12-29T16:03:14;13.27;;;6.35;;
41689;SDS011;27372;42.658;23.256;2023-12-29T16:05:40;15.13;;;6.57;;
41689;SDS011;27372;42.658;23.256;2023-12-29T16:08:05;13.02;;;5.75;;
41689;SDS011;27372;42.658;23.256;2023-12-29T16:10:31;17.55;;;6.03;;
41689;SDS011;27372;42.658;23.256;2023-12-29T16:12:57;10.75;;;5.18;;
41689;SDS011;27372;42.658;23.256;2023-12-29T16:15:22;18.90;;;7.10;;
41689;SDS011;27372;42.658;23.256;2023-12-29T16:17:47;16.80;;;7.00;;
41689;SDS011;27372;42.658;23.256;2023-12-29T16:20:13;14.55;;;7.25;;
41689;SDS011;27372;42.658;23.256;2023-12-29T16:22:38;17.05;;;6.88;;
41689;SDS011;27372;42.658;23.256;2023-12-29T16:25:04;14.10;;;6.32;;
41689;SDS011;27372;42.658;23.256;2023-12-29T16:27:30;14.55;;;6.15;;
41689;SDS011;27372;42.658;23.256;2023-12-29T16:29:55;12.82;;;6.65;;
41689;SDS011;27372;42.658;23.256;2023-12-29T16:32:21;19.90;;;6.78;;
41689;SDS011;27372;42.658;23.256;2023-12-29T16:34:47;19.95;;;6.95;;
41689;SDS011;27372;42.658;23.256;2023-12-29T16:37:13;15.02;;;7.18;;
41689;SDS011;27372;42.658;23.256;2023-12-29T16:39:39;10.48;;;5.63;;
41689;SDS011;27372;42.658;23.256;2023-12-29T16:42:05;18.08;;;6.85;;
41689;SDS011;27372;42.658;23.256;2023-12-29T16:44:31;14.73;;;6.93;;
41689;SDS011;27372;42.658;23.256;2023-12-29T16:46:57;15.75;;;8.02;;
41689;SDS011;27372;42.658;23.256;2023-12-29T16:49:22;14.63;;;7.90;;
41689;SDS011;27372;42.658;23.256;2023-12-29T16:51:47;14.80;;;7.43;;
41689;SDS011;27372;42.658;23.256;2023-12-29T16:54:13;14.80;;;8.02;;
41689;SDS011;27372;42.658;23.256;2023-12-29T16:56:38;17.42;;;8.32;;
41689;SDS011;27372;42.658;23.256;2023-12-29T16:59:04;15.90;;;8.00;;
41689;SDS011;27372;42.658;23.256;2023-12-29T17:01:30;17.73;;;8.77;;
41689;SDS011;27372;42.658;23.256;2023-12-29T17:03:56;16.05;;;8.48;;
41689;SDS011;27372;42.658;23.256;2023-12-29T17:06:22;18.27;;;8.32;;
41689;SDS011;27372;42.658;23.256;2023-12-29T17:08:48;11.38;;;7.25;;
41689;SDS011;27372;42.658;23.256;2023-12-29T17:11:13;14.15;;;7.97;;
41689;SDS011;27372;42.658;23.256;2023-12-29T17:13:39;17.40;;;7.82;;
41689;SDS011;27372;42.658;23.256;2023-12-29T17:16:04;14.88;;;6.10;;
41689;SDS011;27372;42.658;23.256;2023-12-29T17:18:30;13.05;;;6.43;;
41689;SDS011;27372;42.658;23.256;2023-12-29T17:20:56;14.02;;;7.38;;
41689;SDS011;27372;42.658;23.256;2023-12-29T17:23:21;16.98;;;6.43;;
41689;SDS011;27372;42.658;23.256;2023-12-29T17:25:47;14.13;;;7.13;;
41689;SDS011;27372;42.658;23.256;2023-12-29T17:28:13;15.48;;;7.30;;
41689;SDS011;27372;42.658;23.256;2023-12-29T17:30:39;14.98;;;7.28;;
41689;SDS011;27372;42.658;23.256;2023-12-29T17:33:04;13.40;;;6.82;;
41689;SDS011;27372;42.658;23.256;2023-12-29T17:35:29;23.00;;;7.32;;
41689;SDS011;27372;42.658;23.256;2023-12-29T17:37:55;14.35;;;8.25;;
41689;SDS011;27372;42.658;23.256;2023-12-29T17:40:20;18.23;;;7.97;;
41689;SDS011;27372;42.658;23.256;2023-12-29T17:42:46;16.98;;;7.80;;
41689;SDS011;27372;42.658;23.256;2023-12-29T17:45:11;14.93;;;7.82;;
41689;SDS011;27372;42.658;23.256;2023-12-29T17:47:37;14.40;;;7.18;;
41689;SDS011;27372;42.658;23.256;2023-12-29T17:50:03;12.15;;;6.47;;
41689;SDS011;27372;42.658;23.256;2023-12-29T17:52:29;11.80;;;6.82;;
41689;SDS011;27372;42.658;23.256;2023-12-29T17:54:54;10.85;;;5.75;;
41689;SDS011;27372;42.658;23.256;2023-12-29T17:57:20;12.68;;;6.78;;
41689;SDS011;27372;42.658;23.256;2023-12-29T17:59:45;11.35;;;6.80;;
41689;SDS011;27372;42.658;23.256;2023-12-29T18:02:12;13.98;;;5.55;;
41689;SDS011;27372;42.658;23.256;2023-12-29T18:04:38;14.02;;;6.57;;
41689;SDS011;27372;42.658;23.256;2023-12-29T18:07:04;11.48;;;6.22;;
41689;SDS011;27372;42.658;23.256;2023-12-29T18:09:29;11.27;;;6.03;;
41689;SDS011;27372;42.658;23.256;2023-12-29T18:11:54;13.05;;;7.63;;
41689;SDS011;27372;42.658;23.256;2023-12-29T18:14:20;15.77;;;6.18;;
41689;SDS011;27372;42.658;23.256;2023-12-29T18:16:45;12.52;;;5.70;;
41689;SDS011;27372;42.658;23.256;2023-12-29T18:19:11;13.32;;;6.53;;
41689;SDS011;27372;42.658;23.256;2023-12-29T18:21:36;10.02;;;6.10;;
41689;SDS011;27372;42.658;23.256;2023-12-29T18:24:03;10.35;;;5.68;;
41689;SDS011;27372;42.658;23.256;2023-12-29T18:26:29;11.63;;;6.68;;
41689;SDS011;27372;42.658;23.256;2023-12-29T18:28:55;13.93;;;8.15;;
41689;SDS011;27372;42.658;23.256;2023-12-29T18:31:20;12.57;;;7.78;;
41689;SDS011;27372;42.658;23.256;2023-12-29T18:33:46;14.18;;;6.53;;